Murmansk, Russia
Current Conditions -  °F | °C
As of 11:00 AM on Thursday 23 Oct 2014 (Local Time) from ULMM Reporting Station
Light Fog Light Fog  
Wind Chill: 11°   Ceiling: Unl
Heat Index: 19°   Visibility: 6mi
Dew Point: 16°   Wind: 7mph
Humidity: 86%   Direction: 170°S
Pressure: 30.5"   Gusts: NA
Location:  68.96°N, 33.08°E
Report Text: ULMM 230800Z 17003MPS 9999 BCFG SCT001 M07/M09 Q1033 NOSIG RMK QBB050 OBST OBSC QFE767 31390150
Loading
Personal Weather Stations






























Interactive Weather Map
Tropical Storm Tracking
New forecast layout! Learn more

10-Day Weather Forecast

Advertisements
Track Severe Weather on mobile